createdAt,value
2023-01-06T00:00:34.423Z,1016.91
2023-01-06T00:01:34.377Z,1016.93
2023-01-06T00:02:34.439Z,1016.92
2023-01-06T00:03:34.370Z,1016.94
2023-01-06T00:04:34.406Z,1016.98
2023-01-06T00:05:34.362Z,1016.97
2023-01-06T00:06:34.483Z,1017.01
2023-01-06T00:07:34.357Z,1016.96
2023-01-06T00:08:34.353Z,1016.95
2023-01-06T00:09:34.354Z,1016.98
2023-01-06T00:10:34.348Z,1016.96
2023-01-06T00:11:34.344Z,1016.96
2023-01-06T00:12:34.334Z,1016.99
2023-01-06T00:13:34.334Z,1016.97
2023-01-06T00:14:34.326Z,1016.97
2023-01-06T00:15:34.360Z,1016.94
2023-01-06T00:16:34.337Z,1016.92
2023-01-06T00:17:34.319Z,1016.90
2023-01-06T00:18:34.315Z,1016.93
2023-01-06T00:19:34.312Z,1016.91
2023-01-06T00:20:34.308Z,1016.92
2023-01-06T00:21:34.313Z,1016.93
2023-01-06T00:22:34.320Z,1016.95
2023-01-06T00:23:34.299Z,1016.92
2023-01-06T00:24:34.291Z,1016.87
2023-01-06T00:25:34.292Z,1016.85
2023-01-06T00:26:34.284Z,1016.83
2023-01-06T00:27:34.282Z,1016.82
2023-01-06T00:28:35.404Z,1016.81
2023-01-06T00:29:34.275Z,1016.78
2023-01-06T00:30:34.268Z,1016.80
2023-01-06T00:31:34.365Z,1016.75
2023-01-06T00:32:34.274Z,1016.78
2023-01-06T00:33:34.260Z,1016.75
2023-01-06T00:34:34.264Z,1016.78
2023-01-06T00:35:34.248Z,1016.78
2023-01-06T00:36:34.244Z,1016.76
2023-01-06T00:37:34.251Z,1016.77
2023-01-06T00:38:34.353Z,1016.75
2023-01-06T00:39:34.235Z,1016.69
2023-01-06T00:40:34.232Z,1016.70
2023-01-06T00:41:34.226Z,1016.68
2023-01-06T00:42:34.220Z,1016.68
2023-01-06T00:43:34.219Z,1016.64
2023-01-06T00:44:34.213Z,1016.69
2023-01-06T00:45:34.216Z,1016.72
2023-01-06T00:46:34.295Z,1016.70
2023-01-06T00:47:34.209Z,1016.69
2023-01-06T00:48:34.199Z,1016.64
2023-01-06T00:49:34.222Z,1016.68
2023-01-06T00:50:34.195Z,1016.66
2023-01-06T00:51:34.195Z,1016.67
2023-01-06T00:52:34.184Z,1016.66
2023-01-06T00:53:34.177Z,1016.63
2023-01-06T00:54:34.291Z,1016.60
2023-01-06T00:55:34.172Z,1016.60
2023-01-06T00:56:34.221Z,1016.57
2023-01-06T00:57:34.174Z,1016.59
2023-01-06T00:58:34.178Z,1016.58
2023-01-06T00:59:34.171Z,1016.61
2023-01-06T01:00:34.154Z,1016.68
2023-01-06T01:01:34.317Z,1016.67
2023-01-06T01:02:34.359Z,1016.68
2023-01-06T01:03:34.142Z,1016.67
2023-01-06T01:04:34.141Z,1016.68
2023-01-06T01:05:34.130Z,1016.66
2023-01-06T01:06:34.129Z,1016.68
2023-01-06T01:07:34.133Z,1016.74
2023-01-06T01:08:34.130Z,1016.79
2023-01-06T01:09:34.115Z,1016.80
2023-01-06T01:10:34.145Z,1016.84
2023-01-06T01:11:34.111Z,1016.82
2023-01-06T01:12:34.115Z,1016.83
2023-01-06T01:13:34.100Z,1016.83
2023-01-06T01:14:34.099Z,1016.84
2023-01-06T01:15:34.140Z,1016.82
2023-01-06T01:16:34.104Z,1016.80
2023-01-06T01:17:34.095Z,1016.78
2023-01-06T01:18:34.085Z,1016.73
2023-01-06T01:19:34.075Z,1016.73
2023-01-06T01:20:34.076Z,1016.70
2023-01-06T01:21:34.072Z,1016.69
2023-01-06T01:22:34.068Z,1016.69
2023-01-06T01:23:34.066Z,1016.71
2023-01-06T01:24:34.064Z,1016.69
2023-01-06T01:25:34.058Z,1016.70
2023-01-06T01:26:34.168Z,1016.68
2023-01-06T01:27:34.048Z,1016.70
2023-01-06T01:28:34.048Z,1016.67
2023-01-06T01:29:34.037Z,1016.67
2023-01-06T01:30:34.037Z,1016.65
2023-01-06T01:31:34.030Z,1016.67
2023-01-06T01:32:34.035Z,1016.61
2023-01-06T01:33:34.021Z,1016.63
2023-01-06T01:34:34.032Z,1016.64
2023-01-06T01:35:34.016Z,1016.64
2023-01-06T01:36:34.013Z,1016.70
2023-01-06T01:37:34.016Z,1016.68
2023-01-06T01:38:34.016Z,1016.66
2023-01-06T01:39:34.003Z,1016.65
2023-01-06T01:40:34.003Z,1016.69
2023-01-06T01:41:33.992Z,1016.68
2023-01-06T01:42:34.120Z,1016.62
2023-01-06T01:43:33.978Z,1016.62
2023-01-06T01:44:33.983Z,1016.64
2023-01-06T01:45:33.978Z,1016.61
2023-01-06T01:46:34.065Z,1016.62
2023-01-06T01:47:33.975Z,1016.63
2023-01-06T01:48:33.970Z,1016.69
2023-01-06T01:49:33.958Z,1016.71
2023-01-06T01:50:33.968Z,1016.63
2023-01-06T01:51:33.951Z,1016.67
2023-01-06T01:52:33.961Z,1016.64
2023-01-06T01:53:33.944Z,1016.60
2023-01-06T01:54:33.948Z,1016.65
2023-01-06T01:55:33.941Z,1016.62
2023-01-06T01:56:33.936Z,1016.58
2023-01-06T01:57:33.930Z,1016.60
2023-01-06T01:58:34.039Z,1016.63
2023-01-06T01:59:33.925Z,1016.63
2023-01-06T02:00:33.926Z,1016.69
2023-01-06T02:01:34.088Z,1016.60
2023-01-06T02:02:34.094Z,1016.62
2023-01-06T02:03:33.901Z,1016.59
2023-01-06T02:04:33.903Z,1016.61
2023-01-06T02:05:33.893Z,1016.62
2023-01-06T02:06:33.900Z,1016.60
2023-01-06T02:07:33.886Z,1016.56
2023-01-06T02:08:33.885Z,1016.56
2023-01-06T02:09:33.879Z,1016.52
2023-01-06T02:10:33.879Z,1016.46
2023-01-06T02:11:33.868Z,1016.48
2023-01-06T02:12:33.874Z,1016.50
2023-01-06T02:13:33.864Z,1016.50
2023-01-06T02:14:34.002Z,1016.47
2023-01-06T02:15:33.853Z,1016.44
2023-01-06T02:16:33.856Z,1016.42
2023-01-06T02:17:33.845Z,1016.39
2023-01-06T02:18:33.847Z,1016.43
2023-01-06T02:19:33.835Z,1016.42
2023-01-06T02:20:33.851Z,1016.34
2023-01-06T02:21:33.831Z,1016.38
2023-01-06T02:22:33.830Z,1016.37
2023-01-06T02:23:33.820Z,1016.34
2023-01-06T02:24:33.826Z,1016.36
2023-01-06T02:25:33.824Z,1016.36
2023-01-06T02:26:33.828Z,1016.38
2023-01-06T02:27:33.813Z,1016.35
2023-01-06T02:28:33.896Z,1016.31
2023-01-06T02:29:33.792Z,1016.33
2023-01-06T02:30:33.919Z,1016.26
2023-01-06T02:31:33.840Z,1016.32
2023-01-06T02:32:33.783Z,1016.33
2023-01-06T02:33:33.779Z,1016.37
2023-01-06T02:34:33.789Z,1016.42
2023-01-06T02:35:33.769Z,1016.47
2023-01-06T02:36:33.768Z,1016.42
2023-01-06T02:37:33.763Z,1016.40
2023-01-06T02:38:33.759Z,1016.32
2023-01-06T02:39:33.759Z,1016.32
2023-01-06T02:40:33.764Z,1016.32
2023-01-06T02:41:33.743Z,1016.33
2023-01-06T02:42:33.742Z,1016.26
2023-01-06T02:43:33.744Z,1016.21
2023-01-06T02:44:33.737Z,1016.23
2023-01-06T02:45:33.729Z,1016.15
2023-01-06T02:46:33.899Z,1016.20
2023-01-06T02:47:33.735Z,1016.19
2023-01-06T02:48:33.729Z,1016.24
2023-01-06T02:49:33.710Z,1016.26
2023-01-06T02:50:33.709Z,1016.21
2023-01-06T02:51:33.705Z,1016.18
2023-01-06T02:52:33.698Z,1016.16
2023-01-06T02:53:33.694Z,1016.11
2023-01-06T02:54:33.697Z,1016.15
2023-01-06T02:55:33.689Z,1016.09
2023-01-06T02:56:33.695Z,1016.08
2023-01-06T02:57:33.678Z,1016.10
2023-01-06T02:58:33.685Z,1016.08
2023-01-06T02:59:33.747Z,1016.13
2023-01-06T03:00:33.670Z,1016.04
2023-01-06T03:01:33.769Z,1016.06
2023-01-06T03:02:33.785Z,1016.00
2023-01-06T03:03:33.679Z,1015.96
2023-01-06T03:04:33.730Z,1015.95
2023-01-06T03:05:33.645Z,1015.97
2023-01-06T03:06:33.683Z,1015.97
2023-01-06T03:07:33.635Z,1015.97
2023-01-06T03:08:33.631Z,1015.97
2023-01-06T03:09:33.627Z,1016.00
2023-01-06T03:10:33.627Z,1016.02
2023-01-06T03:11:33.620Z,1016.02
2023-01-06T03:12:33.622Z,1016.01
2023-01-06T03:13:33.614Z,1015.98
2023-01-06T03:14:33.611Z,1015.96
2023-01-06T03:15:33.604Z,1015.95
2023-01-06T03:16:33.603Z,1015.96
2023-01-06T03:17:33.596Z,1015.91
2023-01-06T03:18:33.706Z,1015.92
2023-01-06T03:19:33.593Z,1015.90
2023-01-06T03:20:33.585Z,1015.89
2023-01-06T03:21:33.579Z,1015.88
2023-01-06T03:22:33.575Z,1015.91
2023-01-06T03:23:33.568Z,1015.88
2023-01-06T03:24:33.571Z,1015.92
2023-01-06T03:25:33.564Z,1015.89
2023-01-06T03:26:33.562Z,1015.89
2023-01-06T03:27:33.552Z,1015.88
2023-01-06T03:28:33.556Z,1015.87
2023-01-06T03:29:33.641Z,1015.88
2023-01-06T03:30:33.545Z,1015.86
2023-01-06T03:31:33.669Z,1015.90
2023-01-06T03:32:33.542Z,1015.91
2023-01-06T03:33:33.534Z,1015.91
2023-01-06T03:34:33.663Z,1015.91
2023-01-06T03:35:33.519Z,1015.85
2023-01-06T03:36:33.523Z,1015.84
2023-01-06T03:37:33.519Z,1015.85
2023-01-06T03:38:33.508Z,1015.78
2023-01-06T03:39:33.524Z,1015.73
2023-01-06T03:40:33.498Z,1015.74
2023-01-06T03:41:33.495Z,1015.72
2023-01-06T03:42:36.553Z,1015.70
2023-01-06T03:43:33.496Z,1015.70
2023-01-06T03:44:33.486Z,1015.70
2023-01-06T03:45:33.477Z,1015.68
2023-01-06T03:46:33.512Z,1015.66
2023-01-06T03:47:33.467Z,1015.66
2023-01-06T03:48:33.470Z,1015.68
2023-01-06T03:49:33.468Z,1015.61
2023-01-06T03:50:33.578Z,1015.54
2023-01-06T03:51:33.452Z,1015.54
2023-01-06T03:52:33.469Z,1015.53
2023-01-06T03:53:33.444Z,1015.50
2023-01-06T03:54:33.447Z,1015.52
2023-01-06T03:55:33.451Z,1015.52
2023-01-06T03:56:33.439Z,1015.55
2023-01-06T03:57:33.440Z,1015.52
2023-01-06T03:58:33.635Z,1015.47
2023-01-06T03:59:33.419Z,1015.47
2023-01-06T04:00:33.495Z,1015.51
2023-01-06T04:01:33.472Z,1015.45
2023-01-06T04:02:33.415Z,1015.44
2023-01-06T04:03:33.464Z,1015.44
2023-01-06T04:04:33.452Z,1015.47
2023-01-06T04:05:33.394Z,1015.48
2023-01-06T04:06:33.517Z,1015.49
2023-01-06T04:07:33.389Z,1015.52
2023-01-06T04:08:33.391Z,1015.48
2023-01-06T04:09:33.381Z,1015.48
2023-01-06T04:10:33.383Z,1015.43
2023-01-06T04:11:33.364Z,1015.43
2023-01-06T04:12:33.371Z,1015.40
2023-01-06T04:13:33.362Z,1015.33
2023-01-06T04:14:33.375Z,1015.38
2023-01-06T04:15:33.349Z,1015.39
2023-01-06T04:16:33.420Z,1015.37
2023-01-06T04:17:33.347Z,1015.36
2023-01-06T04:18:33.349Z,1015.34
2023-01-06T04:19:33.338Z,1015.33
2023-01-06T04:20:33.353Z,1015.34
2023-01-06T04:21:33.325Z,1015.32
2023-01-06T04:22:33.453Z,1015.28
2023-01-06T04:23:33.324Z,1015.28
2023-01-06T04:24:33.327Z,1015.26
2023-01-06T04:25:33.315Z,1015.26
2023-01-06T04:26:33.316Z,1015.28
2023-01-06T04:27:33.309Z,1015.29
2023-01-06T04:28:33.306Z,1015.28
2023-01-06T04:29:33.296Z,1015.27
2023-01-06T04:30:33.303Z,1015.33
2023-01-06T04:31:35.431Z,1015.32
2023-01-06T04:32:33.286Z,1015.33
2023-01-06T04:33:33.280Z,1015.33
2023-01-06T04:34:33.283Z,1015.30
2023-01-06T04:35:33.292Z,1015.29
2023-01-06T04:36:33.268Z,1015.26
2023-01-06T04:37:33.269Z,1015.20
2023-01-06T04:38:33.390Z,1015.17
2023-01-06T04:39:33.272Z,1015.17
2023-01-06T04:40:33.256Z,1015.18
2023-01-06T04:41:33.246Z,1015.23
2023-01-06T04:42:33.254Z,1015.23
2023-01-06T04:43:33.237Z,1015.18
2023-01-06T04:44:33.235Z,1015.17
2023-01-06T04:45:33.317Z,1015.13
2023-01-06T04:46:33.233Z,1015.12
2023-01-06T04:47:33.220Z,1015.15
2023-01-06T04:48:33.224Z,1015.15
2023-01-06T04:49:33.222Z,1015.14
2023-01-06T04:50:33.214Z,1015.14
2023-01-06T04:51:33.202Z,1015.17
2023-01-06T04:52:33.204Z,1015.13
2023-01-06T04:53:33.203Z,1015.13
2023-01-06T04:54:33.318Z,1015.09
2023-01-06T04:55:33.200Z,1015.10
2023-01-06T04:56:33.191Z,1015.06
2023-01-06T04:57:33.181Z,1015.02
2023-01-06T04:58:33.176Z,1014.97
2023-01-06T04:59:33.171Z,1014.92
2023-01-06T05:00:33.172Z,1014.89
2023-01-06T05:01:33.244Z,1014.84
2023-01-06T05:02:33.164Z,1014.85
2023-01-06T05:03:33.177Z,1014.83
2023-01-06T05:04:43.362Z,1014.77
2023-01-06T05:05:33.146Z,1014.79
2023-01-06T05:06:33.144Z,1014.79
2023-01-06T05:07:33.143Z,1014.77
2023-01-06T05:08:33.136Z,1014.75
2023-01-06T05:09:33.136Z,1014.80
2023-01-06T05:10:33.246Z,1014.80
2023-01-06T05:11:33.131Z,1014.77
2023-01-06T05:12:33.120Z,1014.80
2023-01-06T05:13:33.144Z,1014.74
2023-01-06T05:14:33.114Z,1014.77
2023-01-06T05:15:33.107Z,1014.73
2023-01-06T05:16:33.192Z,1014.72
2023-01-06T05:17:33.105Z,1014.63
2023-01-06T05:18:33.096Z,1014.61
2023-01-06T05:19:33.104Z,1014.59
2023-01-06T05:20:33.092Z,1014.57
2023-01-06T05:21:33.228Z,1014.62
2023-01-06T05:22:33.074Z,1014.55
2023-01-06T05:23:33.082Z,1014.57
2023-01-06T05:24:33.069Z,1014.59
2023-01-06T05:25:33.075Z,1014.55
2023-01-06T05:26:33.186Z,1014.52
2023-01-06T05:27:33.061Z,1014.53
2023-01-06T05:28:33.049Z,1014.54
2023-01-06T05:29:33.075Z,1014.54
2023-01-06T05:30:33.044Z,1014.50
2023-01-06T05:31:33.110Z,1014.58
2023-01-06T05:32:33.034Z,1014.55
2023-01-06T05:33:33.037Z,1014.50
2023-01-06T05:34:33.036Z,1014.51
2023-01-06T05:35:33.031Z,1014.58
2023-01-06T05:36:33.015Z,1014.53
2023-01-06T05:37:33.018Z,1014.46
2023-01-06T05:38:34.314Z,1014.48
2023-01-06T05:39:33.009Z,1014.49
2023-01-06T05:40:33.000Z,1014.48
2023-01-06T05:41:33.003Z,1014.44
2023-01-06T05:42:33.109Z,1014.46
2023-01-06T05:43:32.995Z,1014.48
2023-01-06T05:44:32.989Z,1014.46
2023-01-06T05:45:33.032Z,1014.45
2023-01-06T05:46:32.987Z,1014.44
2023-01-06T05:47:32.975Z,1014.43
2023-01-06T05:48:32.978Z,1014.41
2023-01-06T05:49:32.978Z,1014.38
2023-01-06T05:50:32.966Z,1014.30
2023-01-06T05:51:32.963Z,1014.30
2023-01-06T05:52:32.954Z,1014.28
2023-01-06T05:53:32.955Z,1014.18
2023-01-06T05:54:32.953Z,1014.20
2023-01-06T05:55:32.959Z,1014.21
2023-01-06T05:56:32.941Z,1014.18
2023-01-06T05:57:32.977Z,1014.18
2023-01-06T05:58:33.113Z,1014.19
2023-01-06T05:59:32.937Z,1014.14
2023-01-06T06:00:32.922Z,1014.14
2023-01-06T06:01:32.964Z,1014.19
2023-01-06T06:02:32.985Z,1014.24
2023-01-06T06:03:32.974Z,1014.24
2023-01-06T06:04:32.903Z,1014.18
2023-01-06T06:05:32.906Z,1014.16
2023-01-06T06:06:32.902Z,1014.17
2023-01-06T06:07:32.896Z,1014.16
2023-01-06T06:08:32.888Z,1014.20
2023-01-06T06:09:32.890Z,1014.18
2023-01-06T06:10:32.895Z,1014.16
2023-01-06T06:11:32.881Z,1014.18
2023-01-06T06:12:32.877Z,1014.20
2023-01-06T06:13:32.883Z,1014.22
2023-01-06T06:14:32.991Z,1014.21
2023-01-06T06:15:32.867Z,1014.17
2023-01-06T06:16:32.947Z,1014.14
2023-01-06T06:17:32.856Z,1014.17
2023-01-06T06:18:32.850Z,1014.15
2023-01-06T06:19:32.851Z,1014.14
2023-01-06T06:20:32.849Z,1014.11
2023-01-06T06:21:32.848Z,1014.11
2023-01-06T06:22:32.852Z,1014.08
2023-01-06T06:23:32.841Z,1014.13
2023-01-06T06:24:32.824Z,1014.08
2023-01-06T06:25:32.824Z,1014.02
2023-01-06T06:26:32.815Z,1013.93
2023-01-06T06:27:32.817Z,1013.99
2023-01-06T06:28:32.806Z,1013.97
2023-01-06T06:29:32.808Z,1013.93
2023-01-06T06:30:32.926Z,1013.92
2023-01-06T06:31:32.885Z,1013.90
2023-01-06T06:32:32.800Z,1013.84
2023-01-06T06:33:32.790Z,1013.86
2023-01-06T06:34:32.783Z,1013.83
2023-01-06T06:35:32.795Z,1013.82
2023-01-06T06:36:32.777Z,1013.82
2023-01-06T06:37:32.792Z,1013.88
2023-01-06T06:38:32.774Z,1013.92
2023-01-06T06:39:32.771Z,1013.92
2023-01-06T06:40:32.759Z,1013.93
2023-01-06T06:41:32.775Z,1013.92
2023-01-06T06:42:32.752Z,1013.87
2023-01-06T06:43:32.760Z,1013.88
2023-01-06T06:44:32.744Z,1013.93
2023-01-06T06:45:32.769Z,1013.92
2023-01-06T06:46:32.848Z,1013.92
2023-01-06T06:47:32.736Z,1013.87
2023-01-06T06:48:32.735Z,1013.92
2023-01-06T06:49:32.735Z,1013.86
2023-01-06T06:50:32.718Z,1013.79
2023-01-06T06:51:32.739Z,1013.79
2023-01-06T06:52:32.740Z,1013.79
2023-01-06T06:53:32.716Z,1013.76
2023-01-06T06:54:32.718Z,1013.80
2023-01-06T06:55:32.701Z,1013.78
2023-01-06T06:56:32.699Z,1013.82
2023-01-06T06:57:32.703Z,1013.79
2023-01-06T06:58:32.690Z,1013.78
2023-01-06T06:59:32.692Z,1013.76
2023-01-06T07:00:32.683Z,1013.78
2023-01-06T07:01:32.854Z,1013.77
2023-01-06T07:02:32.799Z,1013.70
2023-01-06T07:03:32.689Z,1013.71
2023-01-06T07:04:32.693Z,1013.71
2023-01-06T07:05:32.670Z,1013.64
2023-01-06T07:06:32.672Z,1013.61
2023-01-06T07:07:32.689Z,1013.63
2023-01-06T07:08:32.648Z,1013.60
2023-01-06T07:09:32.650Z,1013.63
2023-01-06T07:10:32.641Z,1013.66
2023-01-06T07:11:32.646Z,1013.66
2023-01-06T07:12:32.643Z,1013.59
2023-01-06T07:13:32.639Z,1013.62
2023-01-06T07:14:32.628Z,1013.57
2023-01-06T07:15:32.679Z,1013.54
2023-01-06T07:16:32.622Z,1013.48
2023-01-06T07:17:32.617Z,1013.46
2023-01-06T07:18:32.728Z,1013.43
2023-01-06T07:19:32.615Z,1013.45
2023-01-06T07:20:32.607Z,1013.44
2023-01-06T07:21:32.602Z,1013.45
2023-01-06T07:22:32.607Z,1013.51
2023-01-06T07:23:32.598Z,1013.53
2023-01-06T07:24:32.583Z,1013.64
2023-01-06T07:25:32.602Z,1013.66
2023-01-06T07:26:32.579Z,1013.66
2023-01-06T07:27:32.577Z,1013.64
2023-01-06T07:28:32.586Z,1013.59
2023-01-06T07:29:32.567Z,1013.55
2023-01-06T07:30:32.576Z,1013.51
2023-01-06T07:31:33.007Z,1013.49
2023-01-06T07:32:32.560Z,1013.48
2023-01-06T07:33:32.551Z,1013.46
2023-01-06T07:34:32.668Z,1013.48
2023-01-06T07:35:32.548Z,1013.47
2023-01-06T07:36:32.539Z,1013.51
2023-01-06T07:37:32.543Z,1013.54
2023-01-06T07:38:32.536Z,1013.56
2023-01-06T07:39:32.549Z,1013.57
2023-01-06T07:40:32.542Z,1013.56
2023-01-06T07:41:32.520Z,1013.58
2023-01-06T07:42:32.513Z,1013.59
2023-01-06T07:43:32.519Z,1013.54
2023-01-06T07:44:32.508Z,1013.56
2023-01-06T07:45:32.504Z,1013.52
2023-01-06T07:46:32.556Z,1013.54
2023-01-06T07:47:32.496Z,1013.52
2023-01-06T07:48:32.501Z,1013.50
2023-01-06T07:49:32.492Z,1013.49
2023-01-06T07:50:32.640Z,1013.51
2023-01-06T07:51:32.483Z,1013.53
2023-01-06T07:52:32.479Z,1013.52
2023-01-06T07:53:32.523Z,1013.52
2023-01-06T07:54:32.469Z,1013.49
2023-01-06T07:55:32.464Z,1013.50
2023-01-06T07:56:32.464Z,1013.45
2023-01-06T07:57:32.461Z,1013.42
2023-01-06T07:58:32.483Z,1013.42
2023-01-06T07:59:32.448Z,1013.44
2023-01-06T08:00:32.443Z,1013.42
2023-01-06T08:01:32.523Z,1013.42
2023-01-06T08:02:32.530Z,1013.48
2023-01-06T08:03:32.432Z,1013.52
2023-01-06T08:04:32.428Z,1013.56
2023-01-06T08:05:32.436Z,1013.58
2023-01-06T08:06:32.532Z,1013.60
2023-01-06T08:07:32.417Z,1013.55
2023-01-06T08:08:32.418Z,1013.60
2023-01-06T08:09:32.412Z,1013.60
2023-01-06T08:10:32.400Z,1013.62
2023-01-06T08:11:32.398Z,1013.68
2023-01-06T08:12:32.393Z,1013.66
2023-01-06T08:13:32.403Z,1013.68
2023-01-06T08:14:32.393Z,1013.60
2023-01-06T08:15:32.398Z,1013.65
2023-01-06T08:16:32.392Z,1013.59
2023-01-06T08:17:32.380Z,1013.54
2023-01-06T08:18:32.370Z,1013.53
2023-01-06T08:19:32.369Z,1013.47
2023-01-06T08:20:32.364Z,1013.42
2023-01-06T08:21:32.366Z,1013.35
2023-01-06T08:22:32.472Z,1013.35
2023-01-06T08:23:32.357Z,1013.33
2023-01-06T08:24:32.796Z,1013.33
2023-01-06T08:25:32.375Z,1013.29
2023-01-06T08:26:32.344Z,1013.28
2023-01-06T08:27:32.405Z,1013.29
2023-01-06T08:28:32.340Z,1013.20
2023-01-06T08:29:32.333Z,1013.18
2023-01-06T08:30:32.331Z,1013.19
2023-01-06T08:31:32.396Z,1013.19
2023-01-06T08:32:32.317Z,1013.22
2023-01-06T08:33:32.323Z,1013.27
2023-01-06T08:34:32.319Z,1013.34
2023-01-06T08:35:32.315Z,1013.39
2023-01-06T08:36:32.309Z,1013.41
2023-01-06T08:37:32.304Z,1013.42
2023-01-06T08:38:32.425Z,1013.44
2023-01-06T08:39:32.304Z,1013.39
2023-01-06T08:40:32.296Z,1013.40
2023-01-06T08:41:32.293Z,1013.28
2023-01-06T08:42:32.294Z,1013.22
2023-01-06T08:43:32.287Z,1013.18
2023-01-06T08:44:32.276Z,1013.20
2023-01-06T08:45:32.282Z,1013.19
2023-01-06T08:46:32.315Z,1013.13
2023-01-06T08:47:32.272Z,1013.20
2023-01-06T08:48:32.261Z,1013.14
2023-01-06T08:49:32.270Z,1013.08
2023-01-06T08:50:32.257Z,1013.10
2023-01-06T08:51:32.251Z,1013.12
2023-01-06T08:52:32.245Z,1013.10
2023-01-06T08:53:32.249Z,1013.13
2023-01-06T08:54:32.363Z,1013.13
2023-01-06T08:55:32.244Z,1013.15
2023-01-06T08:56:32.246Z,1013.20
2023-01-06T08:57:32.257Z,1013.14
2023-01-06T08:58:32.227Z,1013.06
2023-01-06T08:59:32.220Z,1012.99
2023-01-06T09:00:32.213Z,1012.95
2023-01-06T09:01:32.337Z,1012.97
2023-01-06T09:02:32.218Z,1013.01
2023-01-06T09:03:32.218Z,1012.90
2023-01-06T09:04:32.200Z,1012.90
2023-01-06T09:05:32.199Z,1012.99
2023-01-06T09:06:32.221Z,1012.96
2023-01-06T09:07:32.198Z,1013.02
2023-01-06T09:08:32.191Z,1012.93
2023-01-06T09:09:32.213Z,1012.93
2023-01-06T09:10:32.296Z,1012.90
2023-01-06T09:11:32.180Z,1012.89
2023-01-06T09:12:32.173Z,1012.87
2023-01-06T09:13:32.172Z,1012.78
2023-01-06T09:14:32.216Z,1012.80
2023-01-06T09:15:32.170Z,1012.80
2023-01-06T09:16:32.166Z,1012.80
2023-01-06T09:17:32.171Z,1012.78
2023-01-06T09:18:32.151Z,1012.80
2023-01-06T09:19:32.166Z,1012.83
2023-01-06T09:20:32.146Z,1012.83
2023-01-06T09:21:32.167Z,1012.87
2023-01-06T09:22:32.145Z,1012.93
2023-01-06T09:23:32.136Z,1012.97
2023-01-06T09:24:32.134Z,1013.00
2023-01-06T09:25:32.139Z,1012.92
2023-01-06T09:26:32.288Z,1012.91
2023-01-06T09:27:32.119Z,1012.80
2023-01-06T09:28:32.125Z,1012.84
2023-01-06T09:29:32.115Z,1012.83
2023-01-06T09:30:32.116Z,1012.88
2023-01-06T09:31:32.132Z,1012.89
2023-01-06T09:32:32.111Z,1012.95
2023-01-06T09:33:32.098Z,1012.94
2023-01-06T09:34:32.114Z,1012.95
2023-01-06T09:35:32.104Z,1012.92
2023-01-06T09:36:32.098Z,1012.92
2023-01-06T09:37:32.105Z,1012.83
2023-01-06T09:38:32.089Z,1012.87
2023-01-06T09:39:32.090Z,1012.74
2023-01-06T09:40:32.083Z,1012.75
2023-01-06T09:41:32.091Z,1012.71
2023-01-06T09:42:32.099Z,1012.75
2023-01-06T09:43:32.071Z,1012.73
2023-01-06T09:44:32.074Z,1012.66
2023-01-06T09:45:32.063Z,1012.66
2023-01-06T09:46:32.143Z,1012.66
2023-01-06T09:47:32.055Z,1012.54
2023-01-06T09:48:32.060Z,1012.56
2023-01-06T09:49:32.049Z,1012.52
2023-01-06T09:50:32.049Z,1012.53
2023-01-06T09:51:32.045Z,1012.52
2023-01-06T09:52:32.047Z,1012.53
2023-01-06T09:53:32.065Z,1012.53
2023-01-06T09:54:32.036Z,1012.48
2023-01-06T09:55:32.032Z,1012.49
2023-01-06T09:56:32.032Z,1012.49
2023-01-06T09:57:32.035Z,1012.45
2023-01-06T09:58:32.155Z,1012.54
2023-01-06T09:59:32.035Z,1012.50
2023-01-06T10:00:32.029Z,1012.51
2023-01-06T10:01:32.095Z,1012.53
2023-01-06T10:02:32.036Z,1012.47
2023-01-06T10:03:32.008Z,1012.48
2023-01-06T10:04:32.011Z,1012.42
2023-01-06T10:05:31.995Z,1012.34
2023-01-06T10:06:31.996Z,1012.27
2023-01-06T10:07:31.992Z,1012.18
2023-01-06T10:08:31.994Z,1012.19
2023-01-06T10:09:31.987Z,1012.17
2023-01-06T10:10:31.987Z,1012.15
2023-01-06T10:11:31.980Z,1012.18
2023-01-06T10:12:31.985Z,1012.19
2023-01-06T10:13:31.975Z,1012.10
2023-01-06T10:14:32.103Z,1012.09
2023-01-06T10:15:32.003Z,1012.08
2023-01-06T10:16:32.054Z,1012.07
2023-01-06T10:17:31.963Z,1012.04
2023-01-06T10:18:31.962Z,1012.04
2023-01-06T10:19:31.958Z,1011.99
2023-01-06T10:20:31.961Z,1012.07
2023-01-06T10:21:31.959Z,1012.09
2023-01-06T10:22:31.951Z,1012.04
2023-01-06T10:23:31.958Z,1012.09
2023-01-06T10:24:31.953Z,1012.00
2023-01-06T10:25:31.942Z,1011.98
2023-01-06T10:26:31.947Z,1011.95
2023-01-06T10:27:31.933Z,1011.89
2023-01-06T10:28:31.930Z,1011.89
2023-01-06T10:29:31.929Z,1011.91
2023-01-06T10:30:33.967Z,1011.88
2023-01-06T10:31:31.950Z,1011.87
2023-01-06T10:32:31.924Z,1011.88
2023-01-06T10:33:31.926Z,1011.89
2023-01-06T10:34:31.918Z,1011.88
2023-01-06T10:35:31.912Z,1011.86
2023-01-06T10:36:31.922Z,1011.86
2023-01-06T10:37:31.906Z,1011.84
2023-01-06T10:38:31.920Z,1011.88
2023-01-06T10:39:31.906Z,1011.87
2023-01-06T10:40:31.896Z,1011.90
2023-01-06T10:41:31.904Z,1011.88
2023-01-06T10:42:31.895Z,1011.84
2023-01-06T10:43:31.887Z,1011.76
2023-01-06T10:44:31.888Z,1011.67
2023-01-06T10:45:31.879Z,1011.69
2023-01-06T10:46:32.108Z,1011.58
2023-01-06T10:47:31.892Z,1011.64
2023-01-06T10:48:31.883Z,1011.63
2023-01-06T10:49:31.872Z,1011.65
2023-01-06T10:50:31.869Z,1011.58
2023-01-06T10:51:31.869Z,1011.58
2023-01-06T10:52:31.870Z,1011.60
2023-01-06T10:53:31.850Z,1011.54
2023-01-06T10:54:31.873Z,1011.47
2023-01-06T10:55:31.868Z,1011.52
2023-01-06T10:56:31.859Z,1011.52
2023-01-06T10:57:31.848Z,1011.52
2023-01-06T10:58:31.853Z,1011.50
2023-01-06T10:59:31.847Z,1011.58
2023-01-06T11:00:31.869Z,1011.50
2023-01-06T11:01:33.858Z,1011.50
2023-01-06T11:02:32.082Z,1011.54
2023-01-06T11:03:33.748Z,1011.54
2023-01-06T11:04:31.881Z,1011.51
2023-01-06T11:05:31.834Z,1011.52
2023-01-06T11:06:31.838Z,1011.51
2023-01-06T11:07:31.865Z,1011.48
2023-01-06T11:08:31.831Z,1011.46
2023-01-06T11:09:31.838Z,1011.45
2023-01-06T11:10:31.821Z,1011.50
2023-01-06T11:11:31.827Z,1011.47
2023-01-06T11:12:31.827Z,1011.43
2023-01-06T11:13:33.672Z,1011.44
2023-01-06T11:14:31.812Z,1011.43
2023-01-06T11:15:31.803Z,1011.39
2023-01-06T11:16:31.902Z,1011.39
2023-01-06T11:17:31.799Z,1011.40
2023-01-06T11:18:31.920Z,1011.40
2023-01-06T11:19:31.796Z,1011.36
2023-01-06T11:20:31.800Z,1011.37
2023-01-06T11:21:31.787Z,1011.34
2023-01-06T11:23:31.784Z,1011.35
2023-01-06T11:24:31.788Z,1011.33
2023-01-06T11:25:31.778Z,1011.28
2023-01-06T11:26:31.778Z,1011.31
2023-01-06T11:27:31.778Z,1011.31
2023-01-06T11:28:31.785Z,1011.29
2023-01-06T11:29:31.769Z,1011.26
2023-01-06T11:30:31.771Z,1011.21
2023-01-06T11:31:31.818Z,1011.22
2023-01-06T11:32:31.780Z,1011.19
2023-01-06T11:33:31.761Z,1011.17
2023-01-06T11:34:31.887Z,1011.17
2023-01-06T11:35:31.753Z,1011.17
2023-01-06T11:36:31.757Z,1011.10
2023-01-06T11:37:31.839Z,1011.09
2023-01-06T11:38:31.754Z,1011.05
2023-01-06T11:39:31.746Z,1011.08
2023-01-06T11:40:31.752Z,1011.06
2023-01-06T11:41:31.756Z,1011.05
2023-01-06T11:42:31.748Z,1011.05
2023-01-06T11:43:31.791Z,1011.05
2023-01-06T11:44:31.758Z,1011.08
2023-01-06T11:45:31.794Z,1011.03
2023-01-06T11:46:31.740Z,1011.10
2023-01-06T11:47:31.729Z,1011.02
2023-01-06T11:48:31.733Z,1011.06
2023-01-06T11:49:31.733Z,1011.08
2023-01-06T11:50:31.846Z,1011.04
2023-01-06T11:51:31.720Z,1011.02
2023-01-06T11:52:31.729Z,1011.06
2023-01-06T11:53:31.713Z,1011.07
2023-01-06T11:54:31.734Z,1011.01
2023-01-06T11:55:31.721Z,1011.02
2023-01-06T11:56:31.725Z,1010.99
2023-01-06T11:57:31.715Z,1011.04
2023-01-06T11:58:31.707Z,1011.01
2023-01-06T11:59:31.703Z,1010.98
2023-01-06T12:00:31.704Z,1011.02
2023-01-06T12:01:31.734Z,1011.05
2023-01-06T12:02:31.755Z,1011.01
2023-01-06T12:03:31.809Z,1011.05
2023-01-06T12:04:31.696Z,1010.98
2023-01-06T12:05:31.696Z,1011.01
2023-01-06T12:06:31.810Z,1010.93